createdAt,value
2023-04-26T00:00:45.853Z,91.28
2023-04-26T00:01:49.585Z,91.35
2023-04-26T00:02:53.416Z,91.26
2023-04-26T00:03:56.580Z,91.23
2023-04-26T00:05:02.424Z,91.22
2023-04-26T00:06:05.666Z,91.35
2023-04-26T00:07:08.572Z,91.36
2023-04-26T00:08:11.546Z,91.28
2023-04-26T00:09:14.601Z,91.32
2023-04-26T00:10:17.616Z,91.36
2023-04-26T00:11:20.565Z,91.41
2023-04-26T00:12:23.383Z,91.26
2023-04-26T00:13:26.378Z,91.23
2023-04-26T00:14:29.265Z,91.36
2023-04-26T00:15:32.392Z,91.39
2023-04-26T00:16:35.425Z,91.21
2023-04-26T00:17:38.485Z,91.34
2023-04-26T00:18:41.510Z,91.42
2023-04-26T00:19:45.251Z,91.48
2023-04-26T00:20:48.091Z,91.41
2023-04-26T00:21:51.002Z,91.34
2023-04-26T00:22:53.850Z,91.21
2023-04-26T00:23:56.691Z,91.24
2023-04-26T00:24:59.937Z,91.36
2023-04-26T00:26:02.991Z,91.21
2023-04-26T00:27:09.269Z,91.15
2023-04-26T00:28:12.133Z,91.34
2023-04-26T00:29:15.027Z,91.26
2023-04-26T00:30:18.146Z,91.40
2023-04-26T00:31:21.103Z,91.39
2023-04-26T00:32:24.155Z,91.36
2023-04-26T00:33:27.124Z,91.59
2023-04-26T00:34:34.265Z,91.47
2023-04-26T00:35:38.211Z,91.57
2023-04-26T00:36:41.054Z,91.46
2023-04-26T00:37:43.950Z,91.53
2023-04-26T00:38:47.065Z,91.48
2023-04-26T00:39:49.967Z,91.53
2023-04-26T00:40:52.936Z,91.46
2023-04-26T00:41:56.278Z,91.57
2023-04-26T00:42:59.490Z,91.44
2023-04-26T00:44:02.384Z,91.24
2023-04-26T00:45:06.701Z,91.19
2023-04-26T00:46:10.315Z,91.27
2023-04-26T00:47:14.361Z,91.05
2023-04-26T00:48:18.156Z,91.04
2023-04-26T00:49:24.214Z,91.07
2023-04-26T00:50:27.609Z,91.06
2023-04-26T00:51:31.494Z,91.06
2023-04-26T00:52:34.510Z,91.14
2023-04-26T00:53:37.483Z,91.09
2023-04-26T00:54:42.614Z,91.02
2023-04-26T00:55:48.040Z,90.94
2023-04-26T00:56:53.252Z,91.12
2023-04-26T00:57:56.302Z,91.21
2023-04-26T00:58:59.441Z,91.11
2023-04-26T01:00:02.301Z,91.12
2023-04-26T01:01:05.402Z,91.04
2023-04-26T01:02:08.591Z,90.91
2023-04-26T01:03:11.938Z,91.09
2023-04-26T01:04:15.545Z,91.26
2023-04-26T01:05:18.583Z,91.04
2023-04-26T01:06:22.725Z,91.16
2023-04-26T01:07:25.958Z,91.00
2023-04-26T01:08:29.796Z,91.08
2023-04-26T01:09:33.902Z,91.09
2023-04-26T01:10:36.964Z,91.04
2023-04-26T01:11:40.214Z,91.30
2023-04-26T01:12:43.147Z,91.09
2023-04-26T01:13:46.642Z,91.12
2023-04-26T01:14:49.779Z,91.06
2023-04-26T01:15:54.852Z,90.98
2023-04-26T01:16:58.122Z,91.18
2023-04-26T01:18:01.985Z,91.12
2023-04-26T01:19:11.052Z,90.96
2023-04-26T01:20:14.910Z,91.05
2023-04-26T01:21:22.346Z,91.06
2023-04-26T01:22:25.269Z,91.27
2023-04-26T01:23:28.146Z,91.06
2023-04-26T01:24:31.792Z,91.00
2023-04-26T01:25:35.305Z,91.13
2023-04-26T01:26:48.242Z,91.27
2023-04-26T01:27:51.132Z,91.16
2023-04-26T01:28:54.252Z,91.25
2023-04-26T01:29:57.289Z,91.09
2023-04-26T01:31:00.242Z,91.23
2023-04-26T01:32:03.158Z,91.04
2023-04-26T01:33:06.681Z,91.09
2023-04-26T01:34:09.876Z,91.13
2023-04-26T01:35:12.808Z,91.18
2023-04-26T01:36:15.717Z,91.15
2023-04-26T01:37:18.574Z,91.10
2023-04-26T01:38:21.689Z,91.10
2023-04-26T01:39:24.549Z,91.28
2023-04-26T01:40:27.517Z,91.18
2023-04-26T01:41:30.709Z,91.48
2023-04-26T01:42:36.740Z,91.42
2023-04-26T01:43:39.569Z,91.27
2023-04-26T01:44:42.943Z,91.29
2023-04-26T01:45:48.863Z,91.33
2023-04-26T01:47:07.017Z,91.34
2023-04-26T01:48:10.245Z,91.46
2023-04-26T01:49:13.111Z,91.34
2023-04-26T01:50:16.374Z,91.36
2023-04-26T01:51:19.270Z,91.40
2023-04-26T01:52:22.973Z,91.18
2023-04-26T01:53:26.063Z,91.25
2023-04-26T01:54:28.931Z,91.40
2023-04-26T01:55:31.915Z,91.39
2023-04-26T01:56:35.052Z,91.30
2023-04-26T01:57:37.960Z,91.33
2023-04-26T01:58:42.298Z,91.25
2023-04-26T01:59:45.775Z,91.49
2023-04-26T02:00:48.768Z,91.43
2023-04-26T02:01:51.901Z,91.38
2023-04-26T02:02:56.101Z,91.29
2023-04-26T02:03:59.304Z,91.33
2023-04-26T02:05:02.736Z,91.43
2023-04-26T02:06:05.761Z,91.39
2023-04-26T02:07:08.671Z,91.56
2023-04-26T02:08:21.771Z,91.52
2023-04-26T02:09:24.664Z,91.54
2023-04-26T02:10:27.526Z,91.52
2023-04-26T02:11:30.821Z,91.58
2023-04-26T02:12:34.133Z,91.46
2023-04-26T02:13:38.030Z,91.44
2023-04-26T02:14:40.942Z,91.26
2023-04-26T02:15:47.086Z,91.31
2023-04-26T02:16:51.923Z,91.36
2023-04-26T02:17:55.755Z,91.51
2023-04-26T02:19:03.878Z,91.39
2023-04-26T02:20:10.412Z,91.32
2023-04-26T02:21:13.353Z,91.31
2023-04-26T02:22:16.434Z,91.42
2023-04-26T02:23:19.387Z,91.36
2023-04-26T02:24:23.260Z,91.39
2023-04-26T02:25:27.138Z,91.39
2023-04-26T02:26:32.686Z,91.42
2023-04-26T02:27:37.196Z,91.43
2023-04-26T02:28:40.395Z,91.39
2023-04-26T02:29:44.702Z,91.22
2023-04-26T02:30:48.527Z,91.32
2023-04-26T02:31:51.630Z,91.41
2023-04-26T02:32:55.539Z,91.56
2023-04-26T02:33:58.590Z,91.40
2023-04-26T02:35:01.604Z,91.22
2023-04-26T02:36:08.329Z,91.31
2023-04-26T02:37:11.982Z,91.29
2023-04-26T02:38:15.633Z,91.28
2023-04-26T02:39:18.547Z,91.19
2023-04-26T02:40:21.882Z,91.27
2023-04-26T02:41:24.992Z,91.29
2023-04-26T02:42:28.376Z,91.24
2023-04-26T02:43:31.282Z,91.29
2023-04-26T02:44:34.531Z,91.29
2023-04-26T02:45:43.804Z,91.29
2023-04-26T02:46:48.253Z,91.28
2023-04-26T02:47:51.465Z,91.29
2023-04-26T02:48:54.700Z,91.31
2023-04-26T02:49:57.768Z,91.26
2023-04-26T02:51:01.193Z,91.06
2023-04-26T02:52:05.151Z,90.91
2023-04-26T02:53:08.333Z,90.92
2023-04-26T02:54:11.189Z,90.98
2023-04-26T02:55:14.400Z,90.93
2023-04-26T02:56:17.364Z,90.93
2023-04-26T02:57:20.368Z,90.95
2023-04-26T02:58:23.388Z,90.97
2023-04-26T02:59:26.389Z,91.04
2023-04-26T03:00:29.357Z,91.10
2023-04-26T03:01:32.373Z,91.00
2023-04-26T03:02:36.541Z,91.09
2023-04-26T03:03:39.716Z,91.20
2023-04-26T03:04:42.694Z,90.96
2023-04-26T03:05:46.264Z,91.15
2023-04-26T03:06:49.443Z,91.14
2023-04-26T03:07:52.431Z,91.05
2023-04-26T03:08:55.568Z,91.10
2023-04-26T03:09:58.723Z,91.15
2023-04-26T03:11:02.107Z,91.22
2023-04-26T03:12:06.856Z,91.11
2023-04-26T03:13:09.987Z,91.14
2023-04-26T03:14:13.420Z,91.12
2023-04-26T03:15:16.535Z,91.16
2023-04-26T03:16:21.433Z,91.05
2023-04-26T03:17:25.103Z,90.93
2023-04-26T03:18:28.427Z,91.04
2023-04-26T03:19:31.753Z,91.21
2023-04-26T03:20:35.568Z,90.93
2023-04-26T03:21:38.617Z,90.99
2023-04-26T03:22:42.518Z,91.09
2023-04-26T03:23:45.494Z,91.05
2023-04-26T03:24:49.213Z,91.12
2023-04-26T03:25:52.712Z,91.07
2023-04-26T03:26:55.838Z,91.14
2023-04-26T03:27:58.934Z,91.02
2023-04-26T03:29:02.968Z,91.02
2023-04-26T03:30:06.736Z,90.98
2023-04-26T03:31:09.981Z,91.12
2023-04-26T03:32:12.910Z,91.07
2023-04-26T03:33:16.867Z,91.11
2023-04-26T03:34:20.259Z,91.05
2023-04-26T03:35:23.516Z,91.14
2023-04-26T03:36:28.614Z,91.07
2023-04-26T03:37:31.992Z,91.11
2023-04-26T03:38:39.018Z,91.11
2023-04-26T03:39:42.595Z,91.19
2023-04-26T03:40:47.104Z,91.16
2023-04-26T03:41:50.043Z,91.12
2023-04-26T03:42:52.940Z,91.22
2023-04-26T03:43:55.779Z,91.00
2023-04-26T03:44:59.777Z,91.12
2023-04-26T03:46:02.781Z,91.12
2023-04-26T03:47:06.227Z,91.13
2023-04-26T03:48:09.220Z,91.03
2023-04-26T03:49:12.332Z,90.99
2023-04-26T03:50:15.517Z,90.91
2023-04-26T03:51:18.402Z,91.05
2023-04-26T03:52:21.310Z,91.10
2023-04-26T03:53:24.348Z,91.06
2023-04-26T03:54:27.294Z,91.10
2023-04-26T03:55:33.307Z,91.17
2023-04-26T03:56:37.285Z,91.14
2023-04-26T03:57:40.227Z,91.13
2023-04-26T03:58:43.317Z,91.22
2023-04-26T03:59:47.030Z,91.18
2023-04-26T04:00:49.935Z,91.00
2023-04-26T04:01:53.048Z,90.96
2023-04-26T04:02:56.926Z,91.08
2023-04-26T04:04:00.690Z,91.10
2023-04-26T04:05:05.713Z,91.12
2023-04-26T04:06:08.629Z,91.12
2023-04-26T04:07:11.478Z,91.14
2023-04-26T04:08:14.384Z,91.18
2023-04-26T04:09:17.488Z,91.13
2023-04-26T04:10:20.385Z,91.05
2023-04-26T04:11:23.350Z,91.07
2023-04-26T04:12:27.048Z,91.03
2023-04-26T04:13:30.122Z,91.06
2023-04-26T04:14:33.671Z,91.09
2023-04-26T04:15:36.721Z,91.14
2023-04-26T04:16:40.251Z,91.13
2023-04-26T04:17:43.515Z,91.15
2023-04-26T04:18:47.031Z,91.05
2023-04-26T04:19:50.246Z,90.88
2023-04-26T04:20:53.119Z,90.92
2023-04-26T04:21:56.449Z,90.92
2023-04-26T04:23:02.262Z,91.00
2023-04-26T04:24:05.986Z,90.92
2023-04-26T04:25:10.645Z,90.92
2023-04-26T04:26:14.637Z,91.01
2023-04-26T04:27:17.611Z,90.97
2023-04-26T04:28:22.661Z,90.94
2023-04-26T04:29:25.671Z,91.04
2023-04-26T04:30:29.723Z,90.96
2023-04-26T04:31:34.013Z,90.96
2023-04-26T04:32:38.118Z,90.92
2023-04-26T04:33:41.611Z,90.83
2023-04-26T04:34:46.831Z,90.84
2023-04-26T04:35:50.854Z,90.83
2023-04-26T04:36:54.322Z,90.78
2023-04-26T04:37:57.247Z,90.84
2023-04-26T04:39:00.500Z,90.82
2023-04-26T04:40:04.100Z,90.82
2023-04-26T04:41:10.367Z,90.70
2023-04-26T04:42:13.541Z,90.68
2023-04-26T04:43:16.954Z,90.83
2023-04-26T04:44:20.709Z,90.78
2023-04-26T04:45:23.782Z,90.55
2023-04-26T04:46:28.882Z,90.80
2023-04-26T04:47:31.847Z,90.77
2023-04-26T04:48:35.687Z,90.70
2023-04-26T04:49:38.643Z,90.73
2023-04-26T04:50:44.961Z,90.63
2023-04-26T04:51:48.695Z,90.69
2023-04-26T04:52:51.964Z,90.60
2023-04-26T04:53:55.043Z,90.57
2023-04-26T04:54:58.051Z,90.56
2023-04-26T04:56:00.950Z,90.53
2023-04-26T04:57:04.074Z,90.49
2023-04-26T04:58:07.670Z,90.44
2023-04-26T04:59:11.414Z,90.56
2023-04-26T05:00:15.812Z,90.60
2023-04-26T05:01:38.817Z,90.39
2023-04-26T05:02:48.228Z,90.30
2023-04-26T05:03:52.166Z,90.46
2023-04-26T05:04:56.092Z,90.44
2023-04-26T05:06:00.412Z,90.55
2023-04-26T05:07:03.291Z,90.56
2023-04-26T05:08:07.962Z,90.56
2023-04-26T05:09:11.578Z,90.45
2023-04-26T05:10:15.015Z,90.46
2023-04-26T05:11:17.957Z,90.53
2023-04-26T05:12:21.100Z,90.50
2023-04-26T05:13:24.047Z,90.51
2023-04-26T05:14:27.339Z,90.42
2023-04-26T05:15:30.427Z,90.53
2023-04-26T05:16:33.430Z,90.38
2023-04-26T05:17:38.520Z,90.75
2023-04-26T05:18:57.216Z,90.68
2023-04-26T05:20:00.185Z,90.57
2023-04-26T05:21:03.024Z,90.57
2023-04-26T05:22:06.407Z,90.68
2023-04-26T05:23:09.430Z,90.70
2023-04-26T05:24:12.270Z,90.79
2023-04-26T05:25:15.183Z,90.59
2023-04-26T05:26:19.100Z,90.43
2023-04-26T05:27:29.042Z,90.32
2023-04-26T05:28:49.440Z,90.35
2023-04-26T05:30:08.544Z,90.39
2023-04-26T05:31:34.755Z,90.41
2023-04-26T05:32:50.414Z,90.30
2023-04-26T05:34:08.343Z,90.27
2023-04-26T05:35:13.464Z,90.07
2023-04-26T05:36:16.532Z,89.95
2023-04-26T05:37:19.768Z,90.09
2023-04-26T05:38:22.614Z,89.88
2023-04-26T05:39:25.958Z,89.92
2023-04-26T05:40:28.853Z,90.13
2023-04-26T05:41:31.790Z,90.05
2023-04-26T05:42:34.939Z,90.00
2023-04-26T05:43:38.478Z,90.16
2023-04-26T05:44:42.886Z,90.21
2023-04-26T05:45:56.735Z,90.19
2023-04-26T05:47:00.740Z,89.94
2023-04-26T05:48:03.756Z,89.78
2023-04-26T05:49:07.096Z,89.85
2023-04-26T05:50:10.556Z,89.61
2023-04-26T05:51:13.708Z,89.40
2023-04-26T05:52:16.550Z,89.15
2023-04-26T05:53:20.248Z,89.17
2023-04-26T05:54:23.537Z,89.06
2023-04-26T05:55:26.576Z,89.17
2023-04-26T05:56:29.702Z,88.98
2023-04-26T05:57:34.723Z,88.85
2023-04-26T05:58:37.910Z,88.76
2023-04-26T05:59:41.344Z,88.77
2023-04-26T06:00:44.293Z,88.84
2023-04-26T06:01:47.924Z,88.90
2023-04-26T06:02:50.948Z,88.85
2023-04-26T06:03:58.091Z,88.68
2023-04-26T06:05:06.741Z,88.44
2023-04-26T06:06:09.935Z,88.55
2023-04-26T06:07:14.569Z,88.65
2023-04-26T06:08:17.450Z,88.58
2023-04-26T06:09:20.447Z,88.36
2023-04-26T06:10:23.692Z,88.65
2023-04-26T06:11:26.974Z,88.39
2023-04-26T06:12:30.211Z,88.74
2023-04-26T06:13:33.322Z,88.17
2023-04-26T06:14:36.250Z,88.09
2023-04-26T06:15:42.464Z,88.15
2023-04-26T06:16:45.528Z,88.50
2023-04-26T06:17:48.449Z,88.73
2023-04-26T06:18:52.356Z,88.45
2023-04-26T06:19:55.388Z,88.19
2023-04-26T06:20:58.505Z,88.24
2023-04-26T06:22:01.419Z,88.13
2023-04-26T06:23:04.806Z,87.22
2023-04-26T06:24:07.820Z,87.11
2023-04-26T06:25:13.104Z,87.01
2023-04-26T06:26:16.065Z,87.06
2023-04-26T06:27:18.973Z,87.37
2023-04-26T06:28:23.614Z,86.55
2023-04-26T06:29:26.447Z,86.55
2023-04-26T06:30:29.431Z,86.27
2023-04-26T06:31:32.490Z,85.99
2023-04-26T06:32:35.862Z,85.74
2023-04-26T06:33:38.745Z,85.72
2023-04-26T06:34:43.928Z,85.18
2023-04-26T06:35:46.926Z,85.39
2023-04-26T06:36:51.138Z,85.38
2023-04-26T06:37:54.874Z,85.71
2023-04-26T06:38:57.762Z,85.97
2023-04-26T06:40:02.189Z,85.48
2023-04-26T06:41:05.132Z,85.06
2023-04-26T06:42:08.608Z,85.29
2023-04-26T06:43:26.535Z,85.49
2023-04-26T06:44:38.855Z,84.97
2023-04-26T06:45:43.524Z,84.56
2023-04-26T06:46:47.622Z,84.30
2023-04-26T06:47:53.049Z,84.61
2023-04-26T06:48:59.472Z,84.32
2023-04-26T06:50:04.545Z,84.32
2023-04-26T06:51:12.200Z,83.80
2023-04-26T06:52:15.342Z,82.75
2023-04-26T06:53:18.447Z,82.56
2023-04-26T06:54:21.586Z,82.20
2023-04-26T06:55:24.971Z,82.34
2023-04-26T06:56:27.853Z,82.08
2023-04-26T06:57:30.845Z,81.55
2023-04-26T06:58:33.691Z,82.02
2023-04-26T06:59:36.759Z,82.20
2023-04-26T07:00:39.635Z,82.66
2023-04-26T07:01:42.743Z,81.83
2023-04-26T07:02:46.254Z,81.84
2023-04-26T07:03:49.416Z,82.14
2023-04-26T07:04:52.997Z,82.15
2023-04-26T07:05:56.856Z,81.65
2023-04-26T07:06:59.673Z,81.43
2023-04-26T07:08:02.530Z,80.37
2023-04-26T07:09:05.444Z,79.31
2023-04-26T07:10:09.605Z,78.74
2023-04-26T07:11:13.492Z,78.67
2023-04-26T07:12:16.777Z,79.62
2023-04-26T07:13:19.684Z,79.52
2023-04-26T07:14:23.468Z,78.55
2023-04-26T07:15:26.436Z,78.61
2023-04-26T07:16:29.354Z,78.00
2023-04-26T07:17:32.916Z,77.71
2023-04-26T07:18:35.836Z,78.17
2023-04-26T07:19:38.860Z,78.60
2023-04-26T07:20:41.786Z,78.25
2023-04-26T07:21:44.801Z,77.51
2023-04-26T07:22:47.918Z,76.72
2023-04-26T07:23:57.010Z,75.46
2023-04-26T07:24:59.901Z,76.16
2023-04-26T07:26:04.496Z,76.14
2023-04-26T07:27:07.472Z,76.52
2023-04-26T07:28:10.404Z,77.20
2023-04-26T07:29:13.518Z,77.94
2023-04-26T07:30:16.383Z,77.59
2023-04-26T07:31:19.969Z,77.54
2023-04-26T07:32:23.269Z,77.64
2023-04-26T07:33:26.614Z,77.57
2023-04-26T07:34:29.622Z,77.00
2023-04-26T07:35:34.831Z,77.28
2023-04-26T07:36:37.838Z,77.31
2023-04-26T07:37:41.157Z,77.33
2023-04-26T07:38:44.099Z,77.73
2023-04-26T07:39:46.968Z,77.96
2023-04-26T07:40:50.600Z,76.80
2023-04-26T07:41:53.425Z,77.03
2023-04-26T07:42:56.236Z,77.06
2023-04-26T07:43:59.264Z,77.19
2023-04-26T07:45:02.135Z,78.07
2023-04-26T07:46:05.134Z,79.02
2023-04-26T07:47:13.772Z,78.51
2023-04-26T07:48:16.968Z,77.49
2023-04-26T07:49:19.861Z,77.05
2023-04-26T07:50:22.769Z,76.35
2023-04-26T07:51:26.577Z,76.56
2023-04-26T07:52:29.494Z,76.38
2023-04-26T07:53:32.466Z,76.85
2023-04-26T07:54:35.641Z,77.41
2023-04-26T07:55:38.573Z,77.65
2023-04-26T07:56:41.412Z,77.72
2023-04-26T07:57:44.306Z,77.43
2023-04-26T07:58:47.269Z,76.82
2023-04-26T07:59:50.194Z,74.99
2023-04-26T08:00:53.080Z,74.89
2023-04-26T08:01:55.989Z,74.95
2023-04-26T08:02:59.015Z,75.15
2023-04-26T08:04:02.629Z,74.96
2023-04-26T08:05:06.379Z,75.48
2023-04-26T08:06:09.392Z,74.65
2023-04-26T08:07:12.445Z,74.96
2023-04-26T08:08:17.161Z,75.48
2023-04-26T08:09:21.447Z,75.86
2023-04-26T08:10:24.398Z,76.14
2023-04-26T08:11:27.555Z,75.77
2023-04-26T08:12:30.537Z,75.18
2023-04-26T08:13:33.376Z,74.97
2023-04-26T08:14:36.905Z,75.68
2023-04-26T08:15:39.771Z,76.18
2023-04-26T08:16:43.900Z,76.40
2023-04-26T08:17:48.354Z,76.60
2023-04-26T08:18:51.342Z,76.60
2023-04-26T08:19:54.394Z,76.41
2023-04-26T08:20:57.470Z,76.41
2023-04-26T08:22:00.484Z,76.28
2023-04-26T08:23:03.408Z,76.34
2023-04-26T08:24:07.385Z,76.48
2023-04-26T08:25:10.971Z,76.31
2023-04-26T08:26:13.980Z,76.75
2023-04-26T08:27:17.826Z,76.61
2023-04-26T08:28:21.606Z,76.82
2023-04-26T08:29:26.886Z,76.63
2023-04-26T08:30:29.957Z,76.62
2023-04-26T08:31:32.933Z,77.15
2023-04-26T08:32:35.972Z,78.00
2023-04-26T08:33:38.843Z,78.43
2023-04-26T08:34:41.683Z,78.14
2023-04-26T08:35:44.596Z,77.40
2023-04-26T08:36:47.547Z,76.95
2023-04-26T08:37:50.797Z,76.42
2023-04-26T08:38:54.017Z,76.15
2023-04-26T08:39:57.255Z,75.82
2023-04-26T08:41:03.545Z,76.23
2023-04-26T08:42:14.216Z,75.69
2023-04-26T08:43:19.694Z,75.48
2023-04-26T08:44:24.572Z,75.59
2023-04-26T08:45:27.505Z,75.88
2023-04-26T08:46:36.783Z,76.20
2023-04-26T08:47:49.036Z,76.25
2023-04-26T08:49:06.364Z,76.31
2023-04-26T08:50:15.085Z,76.00
2023-04-26T08:51:19.036Z,76.13
2023-04-26T08:52:23.541Z,76.05
2023-04-26T08:53:27.206Z,75.50
2023-04-26T08:54:31.448Z,75.37
2023-04-26T08:55:36.828Z,74.56
2023-04-26T08:56:43.303Z,75.01
2023-04-26T08:57:47.787Z,73.96
2023-04-26T08:58:52.120Z,73.68
2023-04-26T08:59:58.437Z,73.59
2023-04-26T09:01:03.548Z,72.44
2023-04-26T09:02:07.525Z,72.58
2023-04-26T09:03:11.034Z,71.79
2023-04-26T09:04:14.594Z,71.10
2023-04-26T09:05:17.814Z,70.75
2023-04-26T09:06:21.773Z,71.25
2023-04-26T09:07:35.784Z,71.92
2023-04-26T09:08:41.852Z,72.65
2023-04-26T09:09:49.596Z,72.68
2023-04-26T09:10:52.453Z,72.84
2023-04-26T09:11:59.962Z,73.78
2023-04-26T09:13:02.831Z,74.03
2023-04-26T09:14:06.515Z,73.78
2023-04-26T09:15:10.609Z,72.21
2023-04-26T09:16:13.565Z,71.88
2023-04-26T09:17:26.415Z,71.51
2023-04-26T09:18:31.444Z,72.17
2023-04-26T09:19:38.708Z,72.44
2023-04-26T09:20:41.624Z,71.91
2023-04-26T09:21:46.548Z,71.69
2023-04-26T09:22:52.150Z,71.48
2023-04-26T09:24:01.802Z,70.89
2023-04-26T09:25:07.274Z,70.79
2023-04-26T09:26:21.181Z,71.46
2023-04-26T09:27:43.450Z,71.60
2023-04-26T09:28:47.603Z,71.93
2023-04-26T09:30:09.360Z,72.11
2023-04-26T09:31:13.433Z,70.93
2023-04-26T09:32:16.312Z,72.18
2023-04-26T09:33:19.660Z,71.85
2023-04-26T09:34:22.617Z,72.38
2023-04-26T09:35:35.981Z,71.97
2023-04-26T09:36:52.725Z,72.03
2023-04-26T09:38:13.558Z,70.13
2023-04-26T09:39:35.500Z,70.99
2023-04-26T09:40:49.109Z,70.07
2023-04-26T09:41:52.454Z,70.80
2023-04-26T09:42:58.992Z,70.69
2023-04-26T09:44:02.023Z,71.11
2023-04-26T09:45:08.789Z,70.82
2023-04-26T09:46:11.702Z,70.57
2023-04-26T09:47:14.632Z,69.75
2023-04-26T09:48:23.181Z,67.46
2023-04-26T09:49:27.614Z,67.80
2023-04-26T09:50:31.699Z,67.74
2023-04-26T09:51:34.552Z,68.47
2023-04-26T09:52:44.515Z,66.63
2023-04-26T09:53:50.087Z,66.48
2023-04-26T09:54:54.327Z,64.87
2023-04-26T09:56:05.918Z,65.90
2023-04-26T09:57:09.333Z,66.15
2023-04-26T09:58:12.534Z,65.74
2023-04-26T09:59:15.761Z,65.76
2023-04-26T10:00:19.945Z,65.95
2023-04-26T10:01:23.275Z,65.75
2023-04-26T10:02:27.780Z,65.84
2023-04-26T10:03:32.519Z,66.04
2023-04-26T10:04:35.900Z,66.41
2023-04-26T10:05:39.198Z,65.36
2023-04-26T10:06:42.029Z,65.28
2023-04-26T10:07:45.802Z,65.68
2023-04-26T10:08:48.667Z,65.54
2023-04-26T10:09:52.032Z,66.84
2023-04-26T10:10:55.702Z,67.96
2023-04-26T10:12:00.146Z,68.66
2023-04-26T10:13:06.047Z,68.50
2023-04-26T10:14:09.054Z,68.72
2023-04-26T10:15:12.249Z,67.23
2023-04-26T10:16:17.166Z,66.27
2023-04-26T10:17:21.073Z,65.94
2023-04-26T10:18:24.595Z,66.51
2023-04-26T10:19:27.641Z,66.50
2023-04-26T10:20:31.052Z,66.21
2023-04-26T10:21:38.112Z,67.11
2023-04-26T10:22:46.287Z,67.12
2023-04-26T10:23:49.856Z,65.45
2023-04-26T10:24:55.061Z,65.55
2023-04-26T10:25:57.934Z,65.37
2023-04-26T10:27:03.138Z,65.92
2023-04-26T10:28:06.090Z,64.41
2023-04-26T10:29:09.182Z,64.74
2023-04-26T10:30:14.045Z,64.18
2023-04-26T10:31:16.976Z,63.91
2023-04-26T10:32:23.455Z,64.02
2023-04-26T10:33:27.307Z,63.71
2023-04-26T10:34:31.990Z,64.25
2023-04-26T10:35:38.226Z,64.16
2023-04-26T10:37:17.495Z,64.32
2023-04-26T10:38:20.791Z,63.85
2023-04-26T10:39:25.055Z,63.55
2023-04-26T10:40:31.033Z,64.08
2023-04-26T10:41:36.127Z,64.17
2023-04-26T10:42:41.424Z,64.18
2023-04-26T10:43:44.507Z,64.69
2023-04-26T10:44:48.913Z,64.79
2023-04-26T10:45:52.022Z,64.72
2023-04-26T10:46:54.943Z,64.71
2023-04-26T10:48:23.299Z,65.23
2023-04-26T10:49:26.772Z,65.36
2023-04-26T10:50:29.711Z,65.20
2023-04-26T10:51:32.751Z,65.63
2023-04-26T10:52:37.418Z,65.61
2023-04-26T10:53:52.296Z,65.57
2023-04-26T10:54:59.263Z,65.27
2023-04-26T10:56:02.161Z,64.88
2023-04-26T10:57:05.132Z,65.17
2023-04-26T10:58:33.731Z,64.94
2023-04-26T10:59:51.229Z,64.18
2023-04-26T11:01:17.707Z,63.57
2023-04-26T11:02:53.411Z,63.54
2023-04-26T11:03:59.796Z,63.85
2023-04-26T11:05:04.412Z,64.63
2023-04-26T11:06:09.909Z,63.55
2023-04-26T11:07:14.096Z,64.42
2023-04-26T11:08:21.439Z,64.30
2023-04-26T11:09:40.908Z,64.06
2023-04-26T11:10:51.113Z,64.42
2023-04-26T11:11:53.953Z,64.66
2023-04-26T11:13:03.289Z,65.15
2023-04-26T11:14:06.699Z,64.27
2023-04-26T11:15:12.727Z,63.53
2023-04-26T11:16:17.060Z,63.66
2023-04-26T11:17:20.885Z,64.18
2023-04-26T11:18:24.319Z,64.38
2023-04-26T11:19:27.251Z,64.25
2023-04-26T11:20:31.825Z,64.48
2023-04-26T11:21:36.516Z,64.03
2023-04-26T11:22:42.482Z,64.16
2023-04-26T11:23:54.204Z,64.61
2023-04-26T11:24:57.228Z,64.98
2023-04-26T11:26:04.468Z,64.58
2023-04-26T11:27:11.993Z,64.53
2023-04-26T11:28:15.247Z,63.03
2023-04-26T11:29:21.617Z,63.21
2023-04-26T11:30:24.543Z,62.82
2023-04-26T11:31:34.548Z,62.23
2023-04-26T11:32:37.830Z,62.30
2023-04-26T11:33:42.006Z,62.16
2023-04-26T11:34:44.848Z,61.93
2023-04-26T11:35:48.078Z,62.56
2023-04-26T11:36:51.306Z,62.33
2023-04-26T11:37:54.283Z,62.38
2023-04-26T11:38:57.757Z,62.81
2023-04-26T11:40:00.578Z,63.30
2023-04-26T11:41:04.187Z,62.59
2023-04-26T11:42:08.661Z,62.51
2023-04-26T11:43:11.917Z,62.89
2023-04-26T11:44:19.722Z,62.99
2023-04-26T11:45:22.689Z,62.83
2023-04-26T11:46:25.710Z,62.91
2023-04-26T11:47:30.946Z,62.82
2023-04-26T11:48:36.129Z,62.93
2023-04-26T11:49:39.337Z,63.17
2023-04-26T11:50:42.766Z,63.65
2023-04-26T11:51:48.668Z,63.63
2023-04-26T11:52:51.692Z,63.91
2023-04-26T11:53:54.608Z,62.67
2023-04-26T11:55:07.489Z,63.45
2023-04-26T11:56:20.452Z,63.56
2023-04-26T11:57:23.308Z,63.59
2023-04-26T11:58:26.271Z,63.04
2023-04-26T11:59:30.862Z,63.47
2023-04-26T12:00:33.929Z,63.65
2023-04-26T12:01:36.845Z,63.59
2023-04-26T12:02:43.971Z,63.74
2023-04-26T12:03:50.967Z,63.28
2023-04-26T12:04:59.172Z,63.76
2023-04-26T12:06:02.228Z,63.96
2023-04-26T12:07:05.660Z,63.78
2023-04-26T12:08:10.434Z,63.53
2023-04-26T12:09:13.816Z,64.12
2023-04-26T12:10:18.124Z,64.40
2023-04-26T12:11:21.237Z,63.99
2023-04-26T12:12:24.460Z,63.58
2023-04-26T12:13:29.041Z,63.94
2023-04-26T12:14:33.740Z,63.39
2023-04-26T12:15:36.623Z,63.11
2023-04-26T12:16:42.553Z,63.27
2023-04-26T12:18:21.745Z,63.04
2023-04-26T12:19:24.730Z,63.06
2023-04-26T12:20:32.919Z,63.08
2023-04-26T12:21:43.243Z,62.96
2023-04-26T12:23:07.690Z,62.17
2023-04-26T12:24:40.505Z,62.04
2023-04-26T12:25:55.060Z,61.46
2023-04-26T12:26:59.135Z,61.63
2023-04-26T12:28:12.739Z,61.66
2023-04-26T12:29:15.840Z,61.30
2023-04-26T12:30:18.770Z,61.94
2023-04-26T12:31:21.801Z,62.25
2023-04-26T12:32:25.701Z,61.82
2023-04-26T12:33:28.586Z,61.74
2023-04-26T12:34:31.483Z,60.70
2023-04-26T12:35:35.278Z,60.99
2023-04-26T12:36:41.220Z,61.23
2023-04-26T12:37:44.473Z,61.41
2023-04-26T12:38:47.303Z,61.70
2023-04-26T12:39:50.231Z,61.70
2023-04-26T12:40:53.089Z,61.73
2023-04-26T12:41:55.965Z,61.76
2023-04-26T12:42:58.963Z,61.62
2023-04-26T12:44:01.879Z,61.78
2023-04-26T12:45:05.074Z,61.77
2023-04-26T12:46:08.103Z,62.16
2023-04-26T12:47:10.961Z,60.92
2023-04-26T12:48:14.052Z,61.01
2023-04-26T12:49:17.106Z,61.63
2023-04-26T12:50:20.033Z,61.58
2023-04-26T12:51:22.890Z,61.07
2023-04-26T12:52:26.017Z,61.10
2023-04-26T12:53:28.889Z,61.55
2023-04-26T12:54:31.935Z,61.83
2023-04-26T12:55:34.858Z,61.63
2023-04-26T12:56:43.619Z,62.04
2023-04-26T12:57:46.751Z,62.10
2023-04-26T12:58:49.788Z,61.77
2023-04-26T12:59:52.763Z,61.83
2023-04-26T13:00:55.905Z,61.76
2023-04-26T13:01:58.846Z,61.10
2023-04-26T13:03:02.613Z,61.59
2023-04-26T13:04:06.276Z,61.70
2023-04-26T13:05:10.669Z,61.83
2023-04-26T13:06:13.876Z,61.73
2023-04-26T13:07:17.362Z,62.13
2023-04-26T13:08:20.555Z,62.01
2023-04-26T13:09:23.471Z,61.85
2023-04-26T13:10:26.875Z,62.00
2023-04-26T13:11:29.790Z,62.01
2023-04-26T13:12:33.445Z,62.27
2023-04-26T13:13:43.895Z,62.22
2023-04-26T13:14:47.344Z,62.01
2023-04-26T13:15:50.558Z,61.74
2023-04-26T13:16:53.909Z,62.08
2023-04-26T13:17:56.990Z,61.83
2023-04-26T13:18:59.965Z,62.10
2023-04-26T13:20:05.905Z,61.87
2023-04-26T13:21:08.880Z,61.37
2023-04-26T13:22:12.329Z,61.56
2023-04-26T13:23:15.327Z,61.18
2023-04-26T13:24:18.176Z,61.21
2023-04-26T13:25:21.406Z,61.10
2023-04-26T13:26:26.386Z,61.25
2023-04-26T13:27:31.763Z,60.78
2023-04-26T13:28:36.475Z,61.10
2023-04-26T13:29:40.086Z,60.84
2023-04-26T13:30:42.940Z,60.57
2023-04-26T13:31:46.184Z,61.14
2023-04-26T13:32:49.636Z,61.35
2023-04-26T13:33:52.711Z,61.12
2023-04-26T13:34:56.098Z,60.48
2023-04-26T13:35:59.259Z,60.23
2023-04-26T13:37:03.965Z,60.45
2023-04-26T13:38:07.006Z,60.08
2023-04-26T13:39:10.122Z,59.34
2023-04-26T13:40:13.192Z,59.76
2023-04-26T13:41:16.318Z,60.05
2023-04-26T13:42:19.291Z,60.22
2023-04-26T13:43:22.371Z,60.27
2023-04-26T13:44:26.873Z,60.00
2023-04-26T13:45:30.047Z,60.09
2023-04-26T13:46:32.991Z,60.13
2023-04-26T13:47:36.747Z,59.93
2023-04-26T13:48:39.658Z,59.83
2023-04-26T13:49:42.838Z,59.85
2023-04-26T13:50:45.905Z,59.85
2023-04-26T13:51:49.105Z,59.55
2023-04-26T13:52:53.129Z,59.67